Portada
METAR-TAF:

METAR-TAF

Aeropuertos :

Aeropuerto Internacional Wattay

Vientián, Laos

latitud: 17-57N, longitud: 102-34E, altitud: 171 m

Observación

El informe se hizo hace 35 minutos, a las 00:30 UTC
Viento calma
Temperatura 16°C
Humedad 94%
Presión 1020 hPa
Visibilidad: 5000 m
Escasas nubes a una altura de 5000 ft
neblina

METAR: VLVT 190030Z 00000KT 5000 BR FEW050 16/15 Q1020 NOSIG

Hora: 08:05 (01:05 UTC)

Pronóstico

El informe se hizo hace 2 horas y 5 minutos, a las 23:00 UTC
Pronóstico válido del 19 a las 00 UTC al 19 a las 24 UTC
Viento 6 kt del norte-noroeste
Visibilidad: 8000 m
Escasas nubes a una altura de 2000 ft
Escasas nubes a una altura de 5000 ft

TAF: VLVT 182300Z 1900/1924 34006KT 8000 FEW020 FEW050

Observaciones y pronósticos meteorológicos de más de 4000 aeropuertos (mensajes METAR y TAF).

Los puntos amarillos y rojos representan las estaciones disponibles.

Ponga el ratón en el punto deseado para ver el nombre de la estación.

Haga clic para ver las observaciones y los pronósticos meteorológicos.

Para cambiar el mapa : haga clic en los botones verdes con una cruz de color negro para hacer un zoom, en el botón verde con un guión para alejar o en las flechas verdes para mapas adyacentes.


METAR-TAF: